sensor_id;sensor_type;location;lat;lon;timestamp;temperature;humidity
5334;DHT22;2689;50.954;7.116;2024-01-07T00:00:43;4.40;99.90
5334;DHT22;2689;50.954;7.116;2024-01-07T00:03:09;4.30;99.90
5334;DHT22;2689;50.954;7.116;2024-01-07T00:05:38;4.30;99.90
5334;DHT22;2689;50.954;7.116;2024-01-07T00:08:05;4.30;99.90
5334;DHT22;2689;50.954;7.116;2024-01-07T00:10:32;4.40;99.90
5334;DHT22;2689;50.954;7.116;2024-01-07T00:12:59;4.40;99.90
5334;DHT22;2689;50.954;7.116;2024-01-07T00:15:26;4.40;99.90
5334;DHT22;2689;50.954;7.116;2024-01-07T00:17:52;4.50;99.90
5334;DHT22;2689;50.954;7.116;2024-01-07T00:20:19;4.50;99.90
5334;DHT22;2689;50.954;7.116;2024-01-07T00:22:48;4.50;99.90
5334;DHT22;2689;50.954;7.116;2024-01-07T00:25:14;4.50;99.90
5334;DHT22;2689;50.954;7.116;2024-01-07T00:27:43;4.50;99.90
5334;DHT22;2689;50.954;7.116;2024-01-07T00:30:11;4.50;99.90
5334;DHT22;2689;50.954;7.116;2024-01-07T00:32:38;4.50;99.90
5334;DHT22;2689;50.954;7.116;2024-01-07T00:35:05;4.50;99.90
5334;DHT22;2689;50.954;7.116;2024-01-07T00:37:32;4.50;99.90
5334;DHT22;2689;50.954;7.116;2024-01-07T00:40:02;4.50;99.90
5334;DHT22;2689;50.954;7.116;2024-01-07T00:42:28;4.40;99.90
5334;DHT22;2689;50.954;7.116;2024-01-07T00:44:55;4.50;99.90
5334;DHT22;2689;50.954;7.116;2024-01-07T00:47:22;4.40;99.90
5334;DHT22;2689;50.954;7.116;2024-01-07T00:49:49;4.40;99.90
5334;DHT22;2689;50.954;7.116;2024-01-07T00:52:16;4.50;99.90
5334;DHT22;2689;50.954;7.116;2024-01-07T00:54:42;4.40;99.90
5334;DHT22;2689;50.954;7.116;2024-01-07T00:57:11;4.40;99.90
5334;DHT22;2689;50.954;7.116;2024-01-07T00:59:38;4.50;99.90
5334;DHT22;2689;50.954;7.116;2024-01-07T01:02:05;4.50;99.90
5334;DHT22;2689;50.954;7.116;2024-01-07T01:04:32;4.50;99.90
5334;DHT22;2689;50.954;7.116;2024-01-07T01:06:59;4.50;99.90
5334;DHT22;2689;50.954;7.116;2024-01-07T01:09:27;4.40;99.90
5334;DHT22;2689;50.954;7.116;2024-01-07T01:11:54;4.40;99.90
5334;DHT22;2689;50.954;7.116;2024-01-07T01:14:22;4.50;99.90
5334;DHT22;2689;50.954;7.116;2024-01-07T01:16:49;4.50;99.90
5334;DHT22;2689;50.954;7.116;2024-01-07T01:19:16;4.50;99.90
5334;DHT22;2689;50.954;7.116;2024-01-07T01:21:43;4.40;99.90
5334;DHT22;2689;50.954;7.116;2024-01-07T01:24:10;4.50;99.90
5334;DHT22;2689;50.954;7.116;2024-01-07T01:26:38;4.50;99.90
5334;DHT22;2689;50.954;7.116;2024-01-07T01:29:05;4.50;99.90
5334;DHT22;2689;50.954;7.116;2024-01-07T01:31:33;4.60;99.90
5334;DHT22;2689;50.954;7.116;2024-01-07T01:34:00;4.50;99.90
5334;DHT22;2689;50.954;7.116;2024-01-07T01:36:27;4.60;99.90
5334;DHT22;2689;50.954;7.116;2024-01-07T01:38:54;4.60;99.90
5334;DHT22;2689;50.954;7.116;2024-01-07T01:41:20;4.60;99.90
5334;DHT22;2689;50.954;7.116;2024-01-07T01:43:47;4.60;99.90
5334;DHT22;2689;50.954;7.116;2024-01-07T01:46:14;4.60;99.90
5334;DHT22;2689;50.954;7.116;2024-01-07T01:48:43;4.60;99.90
5334;DHT22;2689;50.954;7.116;2024-01-07T01:51:10;4.60;99.90
5334;DHT22;2689;50.954;7.116;2024-01-07T01:53:37;4.60;99.90
5334;DHT22;2689;50.954;7.116;2024-01-07T01:56:05;4.60;99.90
5334;DHT22;2689;50.954;7.116;2024-01-07T01:58:32;4.60;99.90
5334;DHT22;2689;50.954;7.116;2024-01-07T02:00:59;4.60;99.90
5334;DHT22;2689;50.954;7.116;2024-01-07T02:03:26;4.60;99.90
5334;DHT22;2689;50.954;7.116;2024-01-07T02:05:54;4.60;99.90
5334;DHT22;2689;50.954;7.116;2024-01-07T02:08:21;4.60;99.90
5334;DHT22;2689;50.954;7.116;2024-01-07T02:10:48;4.60;99.90
5334;DHT22;2689;50.954;7.116;2024-01-07T02:13:15;4.70;99.90
5334;DHT22;2689;50.954;7.116;2024-01-07T02:15:42;4.70;99.90
5334;DHT22;2689;50.954;7.116;2024-01-07T02:18:09;4.70;99.90
5334;DHT22;2689;50.954;7.116;2024-01-07T02:20:36;4.70;99.90
5334;DHT22;2689;50.954;7.116;2024-01-07T02:23:04;4.70;99.90
5334;DHT22;2689;50.954;7.116;2024-01-07T02:25:36;4.70;99.90
5334;DHT22;2689;50.954;7.116;2024-01-07T02:28:03;4.80;99.90
5334;DHT22;2689;50.954;7.116;2024-01-07T02:30:30;4.80;99.90
5334;DHT22;2689;50.954;7.116;2024-01-07T02:33:01;4.80;99.90
5334;DHT22;2689;50.954;7.116;2024-01-07T02:35:28;4.80;99.90
5334;DHT22;2689;50.954;7.116;2024-01-07T02:37:54;4.80;99.90
5334;DHT22;2689;50.954;7.116;2024-01-07T02:40:21;4.70;99.90
5334;DHT22;2689;50.954;7.116;2024-01-07T02:42:49;4.70;99.90
5334;DHT22;2689;50.954;7.116;2024-01-07T02:45:16;4.70;99.90
5334;DHT22;2689;50.954;7.116;2024-01-07T02:47:43;4.60;99.90
5334;DHT22;2689;50.954;7.116;2024-01-07T02:50:09;4.60;99.90
5334;DHT22;2689;50.954;7.116;2024-01-07T02:52:36;4.60;99.90
5334;DHT22;2689;50.954;7.116;2024-01-07T02:55:03;4.60;99.90
5334;DHT22;2689;50.954;7.116;2024-01-07T02:57:30;4.60;99.90
5334;DHT22;2689;50.954;7.116;2024-01-07T02:59:58;4.60;99.90
5334;DHT22;2689;50.954;7.116;2024-01-07T03:02:25;4.60;99.90
5334;DHT22;2689;50.954;7.116;2024-01-07T03:04:52;4.60;99.90
5334;DHT22;2689;50.954;7.116;2024-01-07T03:07:18;4.60;99.90
5334;DHT22;2689;50.954;7.116;2024-01-07T03:09:45;4.70;99.90
5334;DHT22;2689;50.954;7.116;2024-01-07T03:12:12;4.70;99.90
5334;DHT22;2689;50.954;7.116;2024-01-07T03:14:40;4.60;99.90
5334;DHT22;2689;50.954;7.116;2024-01-07T03:17:09;4.60;99.90
5334;DHT22;2689;50.954;7.116;2024-01-07T03:19:37;4.60;99.90
5334;DHT22;2689;50.954;7.116;2024-01-07T03:22:04;4.60;99.90
5334;DHT22;2689;50.954;7.116;2024-01-07T03:24:32;4.60;99.90
5334;DHT22;2689;50.954;7.116;2024-01-07T03:26:59;4.60;99.90
5334;DHT22;2689;50.954;7.116;2024-01-07T03:29:26;4.60;99.90
5334;DHT22;2689;50.954;7.116;2024-01-07T03:31:53;4.60;99.90
5334;DHT22;2689;50.954;7.116;2024-01-07T03:34:21;4.60;99.90
5334;DHT22;2689;50.954;7.116;2024-01-07T03:36:47;4.60;99.90
5334;DHT22;2689;50.954;7.116;2024-01-07T03:39:14;4.70;99.90
5334;DHT22;2689;50.954;7.116;2024-01-07T03:41:41;4.60;99.90
5334;DHT22;2689;50.954;7.116;2024-01-07T03:44:08;4.60;99.90
5334;DHT22;2689;50.954;7.116;2024-01-07T03:46:35;4.60;99.90
5334;DHT22;2689;50.954;7.116;2024-01-07T03:49:02;4.60;99.90
5334;DHT22;2689;50.954;7.116;2024-01-07T03:51:30;4.60;99.90
5334;DHT22;2689;50.954;7.116;2024-01-07T03:53:57;4.50;99.90
5334;DHT22;2689;50.954;7.116;2024-01-07T03:56:24;4.60;99.90
5334;DHT22;2689;50.954;7.116;2024-01-07T03:58:51;4.60;99.90
5334;DHT22;2689;50.954;7.116;2024-01-07T04:01:17;4.50;99.90
5334;DHT22;2689;50.954;7.116;2024-01-07T04:03:44;4.50;99.90
5334;DHT22;2689;50.954;7.116;2024-01-07T04:06:11;4.50;99.90
5334;DHT22;2689;50.954;7.116;2024-01-07T04:08:39;4.50;99.90
5334;DHT22;2689;50.954;7.116;2024-01-07T04:11:06;4.50;99.90
5334;DHT22;2689;50.954;7.116;2024-01-07T04:13:33;4.50;99.90
5334;DHT22;2689;50.954;7.116;2024-01-07T04:16:00;4.50;99.90
5334;DHT22;2689;50.954;7.116;2024-01-07T04:18:26;4.50;99.90
5334;DHT22;2689;50.954;7.116;2024-01-07T04:20:53;4.50;99.90
5334;DHT22;2689;50.954;7.116;2024-01-07T04:23:20;4.50;99.90
5334;DHT22;2689;50.954;7.116;2024-01-07T04:25:48;4.50;99.90
5334;DHT22;2689;50.954;7.116;2024-01-07T04:28:15;4.50;99.90
5334;DHT22;2689;50.954;7.116;2024-01-07T04:30:42;4.50;99.90
5334;DHT22;2689;50.954;7.116;2024-01-07T04:33:09;4.50;99.90
5334;DHT22;2689;50.954;7.116;2024-01-07T04:35:35;4.40;99.90
5334;DHT22;2689;50.954;7.116;2024-01-07T04:38:02;4.40;99.90
5334;DHT22;2689;50.954;7.116;2024-01-07T04:40:29;4.40;99.90
5334;DHT22;2689;50.954;7.116;2024-01-07T04:42:57;4.50;99.90
5334;DHT22;2689;50.954;7.116;2024-01-07T04:45:24;4.50;99.90
5334;DHT22;2689;50.954;7.116;2024-01-07T04:47:51;4.50;99.90
5334;DHT22;2689;50.954;7.116;2024-01-07T04:50:18;4.40;99.90
5334;DHT22;2689;50.954;7.116;2024-01-07T04:52:45;4.50;99.90
5334;DHT22;2689;50.954;7.116;2024-01-07T04:55:12;4.50;99.90
5334;DHT22;2689;50.954;7.116;2024-01-07T04:57:39;4.40;99.90
5334;DHT22;2689;50.954;7.116;2024-01-07T05:00:08;4.40;99.90
5334;DHT22;2689;50.954;7.116;2024-01-07T05:02:35;4.30;99.90
5334;DHT22;2689;50.954;7.116;2024-01-07T05:05:03;4.30;99.90
5334;DHT22;2689;50.954;7.116;2024-01-07T05:07:30;4.30;99.90
5334;DHT22;2689;50.954;7.116;2024-01-07T05:09:57;4.20;99.90
5334;DHT22;2689;50.954;7.116;2024-01-07T05:12:24;4.10;99.90
5334;DHT22;2689;50.954;7.116;2024-01-07T05:14:51;4.10;99.90
5334;DHT22;2689;50.954;7.116;2024-01-07T05:17:19;4.20;99.90
5334;DHT22;2689;50.954;7.116;2024-01-07T05:19:46;4.30;99.90
5334;DHT22;2689;50.954;7.116;2024-01-07T05:22:13;4.30;99.90
5334;DHT22;2689;50.954;7.116;2024-01-07T05:24:40;4.30;99.90
5334;DHT22;2689;50.954;7.116;2024-01-07T05:27:08;4.40;99.90
5334;DHT22;2689;50.954;7.116;2024-01-07T05:29:35;4.30;99.90
5334;DHT22;2689;50.954;7.116;2024-01-07T05:32:02;4.30;99.90
5334;DHT22;2689;50.954;7.116;2024-01-07T05:34:31;4.30;99.90
5334;DHT22;2689;50.954;7.116;2024-01-07T05:36:58;4.30;99.90
5334;DHT22;2689;50.954;7.116;2024-01-07T05:39:25;4.30;99.90
5334;DHT22;2689;50.954;7.116;2024-01-07T05:41:52;4.40;99.90
5334;DHT22;2689;50.954;7.116;2024-01-07T05:44:18;4.40;99.90
5334;DHT22;2689;50.954;7.116;2024-01-07T05:46:45;4.40;99.90
5334;DHT22;2689;50.954;7.116;2024-01-07T05:49:12;4.30;99.90
5334;DHT22;2689;50.954;7.116;2024-01-07T05:51:41;4.40;99.90
5334;DHT22;2689;50.954;7.116;2024-01-07T05:54:08;4.20;99.90
5334;DHT22;2689;50.954;7.116;2024-01-07T05:56:38;4.20;99.90
5334;DHT22;2689;50.954;7.116;2024-01-07T05:59:05;4.20;99.90
5334;DHT22;2689;50.954;7.116;2024-01-07T06:01:32;4.20;99.90
5334;DHT22;2689;50.954;7.116;2024-01-07T06:03:59;4.30;99.90
5334;DHT22;2689;50.954;7.116;2024-01-07T06:06:26;4.30;99.90
5334;DHT22;2689;50.954;7.116;2024-01-07T06:08:54;4.20;99.90
5334;DHT22;2689;50.954;7.116;2024-01-07T06:11:21;4.20;99.90
5334;DHT22;2689;50.954;7.116;2024-01-07T06:13:48;4.20;99.90
5334;DHT22;2689;50.954;7.116;2024-01-07T06:16:14;4.10;99.90
5334;DHT22;2689;50.954;7.116;2024-01-07T06:18:41;4.10;99.90
5334;DHT22;2689;50.954;7.116;2024-01-07T06:21:08;4.10;99.90
5334;DHT22;2689;50.954;7.116;2024-01-07T06:23:35;4.10;99.90
5334;DHT22;2689;50.954;7.116;2024-01-07T06:26:04;4.10;99.90
5334;DHT22;2689;50.954;7.116;2024-01-07T06:28:32;4.10;99.90
5334;DHT22;2689;50.954;7.116;2024-01-07T06:30:59;4.10;99.90
5334;DHT22;2689;50.954;7.116;2024-01-07T06:33:26;4.10;99.90
5334;DHT22;2689;50.954;7.116;2024-01-07T06:35:53;4.10;99.90
5334;DHT22;2689;50.954;7.116;2024-01-07T06:38:19;4.10;99.90
5334;DHT22;2689;50.954;7.116;2024-01-07T06:40:46;4.10;99.90
5334;DHT22;2689;50.954;7.116;2024-01-07T06:43:14;4.20;99.90
5334;DHT22;2689;50.954;7.116;2024-01-07T06:45:47;4.10;99.90
5334;DHT22;2689;50.954;7.116;2024-01-07T06:48:14;4.10;99.90
5334;DHT22;2689;50.954;7.116;2024-01-07T06:50:40;4.10;99.90
5334;DHT22;2689;50.954;7.116;2024-01-07T06:53:07;4.10;99.90
5334;DHT22;2689;50.954;7.116;2024-01-07T06:55:34;4.10;99.90
5334;DHT22;2689;50.954;7.116;2024-01-07T06:58:01;4.10;99.90
5334;DHT22;2689;50.954;7.116;2024-01-07T07:00:29;4.10;99.90
5334;DHT22;2689;50.954;7.116;2024-01-07T07:02:56;4.00;99.90
5334;DHT22;2689;50.954;7.116;2024-01-07T07:05:23;4.00;99.90
5334;DHT22;2689;50.954;7.116;2024-01-07T07:07:49;4.00;99.90
5334;DHT22;2689;50.954;7.116;2024-01-07T07:10:16;4.00;99.90
5334;DHT22;2689;50.954;7.116;2024-01-07T07:12:43;4.00;99.90
5334;DHT22;2689;50.954;7.116;2024-01-07T07:15:10;4.00;99.90
5334;DHT22;2689;50.954;7.116;2024-01-07T07:17:38;4.00;99.90
5334;DHT22;2689;50.954;7.116;2024-01-07T07:20:06;4.00;99.90
5334;DHT22;2689;50.954;7.116;2024-01-07T07:22:33;4.10;99.90
5334;DHT22;2689;50.954;7.116;2024-01-07T07:25:00;4.10;99.90
5334;DHT22;2689;50.954;7.116;2024-01-07T07:27:27;4.10;99.90
5334;DHT22;2689;50.954;7.116;2024-01-07T07:29:54;4.10;99.90
5334;DHT22;2689;50.954;7.116;2024-01-07T07:32:21;4.00;99.90
5334;DHT22;2689;50.954;7.116;2024-01-07T07:34:49;4.00;99.90
5334;DHT22;2689;50.954;7.116;2024-01-07T07:37:16;4.00;99.90
5334;DHT22;2689;50.954;7.116;2024-01-07T07:39:43;4.00;99.90
5334;DHT22;2689;50.954;7.116;2024-01-07T07:42:09;4.00;99.90
5334;DHT22;2689;50.954;7.116;2024-01-07T07:44:37;4.00;99.90
5334;DHT22;2689;50.954;7.116;2024-01-07T07:47:04;4.00;99.90
5334;DHT22;2689;50.954;7.116;2024-01-07T07:49:31;3.80;99.90
5334;DHT22;2689;50.954;7.116;2024-01-07T07:51:59;3.80;99.90
5334;DHT22;2689;50.954;7.116;2024-01-07T07:54:26;3.80;99.90
5334;DHT22;2689;50.954;7.116;2024-01-07T07:56:53;3.90;99.90
5334;DHT22;2689;50.954;7.116;2024-01-07T07:59:20;3.90;99.90
5334;DHT22;2689;50.954;7.116;2024-01-07T08:01:47;3.90;99.90
5334;DHT22;2689;50.954;7.116;2024-01-07T08:04:14;3.90;99.90
5334;DHT22;2689;50.954;7.116;2024-01-07T08:06:41;3.90;99.90
5334;DHT22;2689;50.954;7.116;2024-01-07T08:09:11;4.00;99.90
5334;DHT22;2689;50.954;7.116;2024-01-07T08:11:38;3.90;99.90
5334;DHT22;2689;50.954;7.116;2024-01-07T08:14:05;3.80;99.90
5334;DHT22;2689;50.954;7.116;2024-01-07T08:16:32;3.90;99.90
5334;DHT22;2689;50.954;7.116;2024-01-07T08:18:59;3.90;99.90
5334;DHT22;2689;50.954;7.116;2024-01-07T08:21:26;3.80;99.90
5334;DHT22;2689;50.954;7.116;2024-01-07T08:23:53;3.80;99.90
5334;DHT22;2689;50.954;7.116;2024-01-07T08:26:21;3.80;99.90
5334;DHT22;2689;50.954;7.116;2024-01-07T08:28:48;3.70;99.90
5334;DHT22;2689;50.954;7.116;2024-01-07T08:31:15;3.70;99.90
5334;DHT22;2689;50.954;7.116;2024-01-07T08:33:42;3.70;99.90
5334;DHT22;2689;50.954;7.116;2024-01-07T08:36:09;3.70;99.90
5334;DHT22;2689;50.954;7.116;2024-01-07T08:38:35;3.80;99.90
5334;DHT22;2689;50.954;7.116;2024-01-07T08:41:02;3.80;99.90
5334;DHT22;2689;50.954;7.116;2024-01-07T08:43:31;3.80;99.90
5334;DHT22;2689;50.954;7.116;2024-01-07T08:45:58;3.80;99.90
5334;DHT22;2689;50.954;7.116;2024-01-07T08:48:25;3.90;99.90
5334;DHT22;2689;50.954;7.116;2024-01-07T08:50:51;3.90;99.90
5334;DHT22;2689;50.954;7.116;2024-01-07T08:53:18;3.80;99.90
5334;DHT22;2689;50.954;7.116;2024-01-07T08:55:44;3.80;99.90
5334;DHT22;2689;50.954;7.116;2024-01-07T08:58:11;3.80;99.90
5334;DHT22;2689;50.954;7.116;2024-01-07T09:00:41;3.80;99.90
5334;DHT22;2689;50.954;7.116;2024-01-07T09:03:08;3.90;99.90
5334;DHT22;2689;50.954;7.116;2024-01-07T09:05:34;3.90;99.90
5334;DHT22;2689;50.954;7.116;2024-01-07T09:08:01;3.70;99.90
5334;DHT22;2689;50.954;7.116;2024-01-07T09:10:28;3.70;99.90
5334;DHT22;2689;50.954;7.116;2024-01-07T09:12:55;3.70;99.90
5334;DHT22;2689;50.954;7.116;2024-01-07T09:15:22;3.70;99.90
5334;DHT22;2689;50.954;7.116;2024-01-07T09:17:50;3.70;99.90
5334;DHT22;2689;50.954;7.116;2024-01-07T09:20:17;3.70;99.90
5334;DHT22;2689;50.954;7.116;2024-01-07T09:22:44;3.70;99.90
5334;DHT22;2689;50.954;7.116;2024-01-07T09:25:11;3.70;99.90
5334;DHT22;2689;50.954;7.116;2024-01-07T09:27:37;3.50;99.90
5334;DHT22;2689;50.954;7.116;2024-01-07T09:30:05;3.60;99.90
5334;DHT22;2689;50.954;7.116;2024-01-07T09:32:32;3.50;99.90
5334;DHT22;2689;50.954;7.116;2024-01-07T09:35:00;3.60;99.90
5334;DHT22;2689;50.954;7.116;2024-01-07T09:37:27;3.60;99.90
5334;DHT22;2689;50.954;7.116;2024-01-07T09:39:54;3.50;99.90
5334;DHT22;2689;50.954;7.116;2024-01-07T09:42:21;3.60;99.90
5334;DHT22;2689;50.954;7.116;2024-01-07T09:44:48;3.80;99.90
5334;DHT22;2689;50.954;7.116;2024-01-07T09:47:17;3.80;99.90
5334;DHT22;2689;50.954;7.116;2024-01-07T09:49:44;4.00;99.90
5334;DHT22;2689;50.954;7.116;2024-01-07T09:52:12;3.90;99.90
5334;DHT22;2689;50.954;7.116;2024-01-07T09:54:39;3.90;99.90
5334;DHT22;2689;50.954;7.116;2024-01-07T09:57:07;3.90;99.90
5334;DHT22;2689;50.954;7.116;2024-01-07T09:59:35;3.90;99.90
5334;DHT22;2689;50.954;7.116;2024-01-07T10:02:03;4.00;99.90
5334;DHT22;2689;50.954;7.116;2024-01-07T10:04:30;4.00;99.90
5334;DHT22;2689;50.954;7.116;2024-01-07T10:06:57;3.90;99.90
5334;DHT22;2689;50.954;7.116;2024-01-07T10:09:28;3.90;99.90
5334;DHT22;2689;50.954;7.116;2024-01-07T10:11:55;3.90;99.90
5334;DHT22;2689;50.954;7.116;2024-01-07T10:14:22;3.90;99.90
5334;DHT22;2689;50.954;7.116;2024-01-07T10:16:50;4.00;99.90
5334;DHT22;2689;50.954;7.116;2024-01-07T10:19:21;4.10;99.90
5334;DHT22;2689;50.954;7.116;2024-01-07T10:21:59;4.00;99.90
5334;DHT22;2689;50.954;7.116;2024-01-07T10:24:35;4.20;99.90
5334;DHT22;2689;50.954;7.116;2024-01-07T10:27:03;4.20;99.90
5334;DHT22;2689;50.954;7.116;2024-01-07T10:29:30;4.20;99.90
5334;DHT22;2689;50.954;7.116;2024-01-07T10:31:57;4.30;99.90
5334;DHT22;2689;50.954;7.116;2024-01-07T10:34:26;4.30;99.90
5334;DHT22;2689;50.954;7.116;2024-01-07T10:36:54;4.20;99.90
5334;DHT22;2689;50.954;7.116;2024-01-07T10:39:24;4.20;99.90
5334;DHT22;2689;50.954;7.116;2024-01-07T10:41:52;4.20;99.90
5334;DHT22;2689;50.954;7.116;2024-01-07T10:44:23;4.20;99.90
5334;DHT22;2689;50.954;7.116;2024-01-07T10:46:50;4.30;99.90
5334;DHT22;2689;50.954;7.116;2024-01-07T10:49:20;4.30;99.90
5334;DHT22;2689;50.954;7.116;2024-01-07T10:51:53;4.40;99.90
5334;DHT22;2689;50.954;7.116;2024-01-07T10:54:24;4.40;99.90
5334;DHT22;2689;50.954;7.116;2024-01-07T10:56:59;4.50;99.90
5334;DHT22;2689;50.954;7.116;2024-01-07T10:59:26;4.30;99.90
5334;DHT22;2689;50.954;7.116;2024-01-07T11:01:53;4.20;99.90
5334;DHT22;2689;50.954;7.116;2024-01-07T11:04:23;4.10;99.90
5334;DHT22;2689;50.954;7.116;2024-01-07T11:06:59;4.10;99.90
5334;DHT22;2689;50.954;7.116;2024-01-07T11:09:35;4.00;99.90
5334;DHT22;2689;50.954;7.116;2024-01-07T11:12:04;3.80;99.90
5334;DHT22;2689;50.954;7.116;2024-01-07T11:14:36;3.80;99.90
5334;DHT22;2689;50.954;7.116;2024-01-07T11:17:05;3.80;99.90
5334;DHT22;2689;50.954;7.116;2024-01-07T11:19:35;3.90;99.90
5334;DHT22;2689;50.954;7.116;2024-01-07T11:22:22;4.00;99.90
5334;DHT22;2689;50.954;7.116;2024-01-07T11:24:53;4.00;99.90
5334;DHT22;2689;50.954;7.116;2024-01-07T11:27:23;4.00;99.90
5334;DHT22;2689;50.954;7.116;2024-01-07T11:29:54;4.00;99.90
5334;DHT22;2689;50.954;7.116;2024-01-07T11:32:22;4.00;99.90
5334;DHT22;2689;50.954;7.116;2024-01-07T11:34:50;4.10;99.90
5334;DHT22;2689;50.954;7.116;2024-01-07T11:37:19;4.10;99.90
5334;DHT22;2689;50.954;7.116;2024-01-07T11:39:47;4.10;99.90
5334;DHT22;2689;50.954;7.116;2024-01-07T11:42:14;4.10;99.90
5334;DHT22;2689;50.954;7.116;2024-01-07T11:44:47;4.10;99.90
5334;DHT22;2689;50.954;7.116;2024-01-07T11:47:17;4.00;99.90
5334;DHT22;2689;50.954;7.116;2024-01-07T11:49:45;4.00;99.90
5334;DHT22;2689;50.954;7.116;2024-01-07T11:52:12;4.10;99.90
5334;DHT22;2689;50.954;7.116;2024-01-07T11:54:40;4.20;99.90
5334;DHT22;2689;50.954;7.116;2024-01-07T11:57:10;4.10;99.90
5334;DHT22;2689;50.954;7.116;2024-01-07T11:59:37;4.10;99.90
5334;DHT22;2689;50.954;7.116;2024-01-07T12:02:07;4.10;99.90
5334;DHT22;2689;50.954;7.116;2024-01-07T12:04:34;4.00;99.90
5334;DHT22;2689;50.954;7.116;2024-01-07T12:07:01;3.80;99.90
5334;DHT22;2689;50.954;7.116;2024-01-07T12:09:29;3.70;99.90
5334;DHT22;2689;50.954;7.116;2024-01-07T12:11:56;3.70;99.90
5334;DHT22;2689;50.954;7.116;2024-01-07T12:14:23;3.70;99.90
5334;DHT22;2689;50.954;7.116;2024-01-07T12:16:50;3.80;99.90
5334;DHT22;2689;50.954;7.116;2024-01-07T12:19:18;3.70;99.90
5334;DHT22;2689;50.954;7.116;2024-01-07T12:21:45;3.70;99.90
5334;DHT22;2689;50.954;7.116;2024-01-07T12:24:13;3.80;99.90
5334;DHT22;2689;50.954;7.116;2024-01-07T12:26:40;3.80;99.90
5334;DHT22;2689;50.954;7.116;2024-01-07T12:29:07;3.70;99.90
5334;DHT22;2689;50.954;7.116;2024-01-07T12:31:35;3.60;99.90
5334;DHT22;2689;50.954;7.116;2024-01-07T12:34:04;3.50;99.90
5334;DHT22;2689;50.954;7.116;2024-01-07T12:36:33;3.50;99.90
5334;DHT22;2689;50.954;7.116;2024-01-07T12:39:00;3.50;99.90
5334;DHT22;2689;50.954;7.116;2024-01-07T12:41:26;3.40;99.90
5334;DHT22;2689;50.954;7.116;2024-01-07T12:43:54;3.40;99.90
5334;DHT22;2689;50.954;7.116;2024-01-07T12:46:21;3.30;99.90
5334;DHT22;2689;50.954;7.116;2024-01-07T12:48:48;3.30;99.90
5334;DHT22;2689;50.954;7.116;2024-01-07T12:51:16;3.30;99.90
5334;DHT22;2689;50.954;7.116;2024-01-07T12:53:44;3.30;99.90
5334;DHT22;2689;50.954;7.116;2024-01-07T12:56:11;3.30;99.90
5334;DHT22;2689;50.954;7.116;2024-01-07T12:58:38;3.40;99.90
5334;DHT22;2689;50.954;7.116;2024-01-07T13:01:05;3.30;99.90
5334;DHT22;2689;50.954;7.116;2024-01-07T13:03:32;3.30;99.90
5334;DHT22;2689;50.954;7.116;2024-01-07T13:05:59;3.40;99.90
5334;DHT22;2689;50.954;7.116;2024-01-07T13:08:26;3.40;99.90
5334;DHT22;2689;50.954;7.116;2024-01-07T13:10:55;3.50;99.90
5334;DHT22;2689;50.954;7.116;2024-01-07T13:13:22;3.30;99.90
5334;DHT22;2689;50.954;7.116;2024-01-07T13:15:49;3.30;99.90
5334;DHT22;2689;50.954;7.116;2024-01-07T13:18:16;3.30;99.90
5334;DHT22;2689;50.954;7.116;2024-01-07T13:20:43;3.40;99.90
5334;DHT22;2689;50.954;7.116;2024-01-07T13:23:10;3.40;99.90
5334;DHT22;2689;50.954;7.116;2024-01-07T13:25:37;3.40;99.90
5334;DHT22;2689;50.954;7.116;2024-01-07T13:28:05;3.50;99.90
5334;DHT22;2689;50.954;7.116;2024-01-07T13:30:36;3.50;99.90
5334;DHT22;2689;50.954;7.116;2024-01-07T13:33:03;3.50;99.90
5334;DHT22;2689;50.954;7.116;2024-01-07T13:35:30;3.40;99.90
5334;DHT22;2689;50.954;7.116;2024-01-07T13:37:57;3.40;99.90
5334;DHT22;2689;50.954;7.116;2024-01-07T13:40:23;3.40;99.90
5334;DHT22;2689;50.954;7.116;2024-01-07T13:42:50;3.30;99.90
5334;DHT22;2689;50.954;7.116;2024-01-07T13:45:20;3.20;99.90
5334;DHT22;2689;50.954;7.116;2024-01-07T13:47:48;3.20;99.90
5334;DHT22;2689;50.954;7.116;2024-01-07T13:50:15;3.10;99.90
5334;DHT22;2689;50.954;7.116;2024-01-07T13:52:42;3.10;99.90
5334;DHT22;2689;50.954;7.116;2024-01-07T13:55:09;3.00;99.90
5334;DHT22;2689;50.954;7.116;2024-01-07T13:57:36;2.90;99.90
5334;DHT22;2689;50.954;7.116;2024-01-07T14:00:03;2.90;99.90
5334;DHT22;2689;50.954;7.116;2024-01-07T14:02:36;2.70;99.90
5334;DHT22;2689;50.954;7.116;2024-01-07T14:05:04;2.70;99.90
5334;DHT22;2689;50.954;7.116;2024-01-07T14:07:34;2.70;99.90
5334;DHT22;2689;50.954;7.116;2024-01-07T14:10:01;2.60;99.90
5334;DHT22;2689;50.954;7.116;2024-01-07T14:12:28;2.50;99.90
5334;DHT22;2689;50.954;7.116;2024-01-07T14:14:55;2.50;99.90
5334;DHT22;2689;50.954;7.116;2024-01-07T14:17:22;2.40;99.90
5334;DHT22;2689;50.954;7.116;2024-01-07T14:19:50;2.50;99.90
5334;DHT22;2689;50.954;7.116;2024-01-07T14:22:18;2.60;99.90
5334;DHT22;2689;50.954;7.116;2024-01-07T14:24:46;2.70;99.90
5334;DHT22;2689;50.954;7.116;2024-01-07T14:27:13;2.70;99.90
5334;DHT22;2689;50.954;7.116;2024-01-07T14:29:40;2.70;99.90
5334;DHT22;2689;50.954;7.116;2024-01-07T14:32:08;2.70;99.90
5334;DHT22;2689;50.954;7.116;2024-01-07T14:34:37;2.60;99.90
5334;DHT22;2689;50.954;7.116;2024-01-07T14:37:06;2.50;99.90
5334;DHT22;2689;50.954;7.116;2024-01-07T14:39:34;2.60;99.90
5334;DHT22;2689;50.954;7.116;2024-01-07T14:42:01;2.50;99.90
5334;DHT22;2689;50.954;7.116;2024-01-07T14:44:28;2.40;99.90
5334;DHT22;2689;50.954;7.116;2024-01-07T14:46:55;2.40;99.90
5334;DHT22;2689;50.954;7.116;2024-01-07T14:49:22;2.30;99.90
5334;DHT22;2689;50.954;7.116;2024-01-07T14:51:48;2.10;99.80
5334;DHT22;2689;50.954;7.116;2024-01-07T14:54:18;1.80;99.30
5334;DHT22;2689;50.954;7.116;2024-01-07T14:56:44;1.80;99.90
5334;DHT22;2689;50.954;7.116;2024-01-07T14:59:11;1.70;99.70
5334;DHT22;2689;50.954;7.116;2024-01-07T15:01:38;1.50;99.30
5334;DHT22;2689;50.954;7.116;2024-01-07T15:04:07;1.40;98.90
5334;DHT22;2689;50.954;7.116;2024-01-07T15:06:39;1.40;99.20
5334;DHT22;2689;50.954;7.116;2024-01-07T15:09:07;1.40;98.40
5334;DHT22;2689;50.954;7.116;2024-01-07T15:11:35;1.30;97.70
5334;DHT22;2689;50.954;7.116;2024-01-07T15:14:02;1.20;96.80
5334;DHT22;2689;50.954;7.116;2024-01-07T15:16:33;1.20;97.20
5334;DHT22;2689;50.954;7.116;2024-01-07T15:19:00;1.20;96.80
5334;DHT22;2689;50.954;7.116;2024-01-07T15:21:27;1.10;96.60
5334;DHT22;2689;50.954;7.116;2024-01-07T15:23:56;1.10;96.60
5334;DHT22;2689;50.954;7.116;2024-01-07T15:26:23;1.20;97.10
5334;DHT22;2689;50.954;7.116;2024-01-07T15:28:56;1.20;96.90
5334;DHT22;2689;50.954;7.116;2024-01-07T15:31:29;1.20;97.20
5334;DHT22;2689;50.954;7.116;2024-01-07T15:33:56;1.30;96.70
5334;DHT22;2689;50.954;7.116;2024-01-07T15:36:22;1.20;96.20
5334;DHT22;2689;50.954;7.116;2024-01-07T15:38:49;1.30;96.60
5334;DHT22;2689;50.954;7.116;2024-01-07T15:41:16;1.20;96.50
5334;DHT22;2689;50.954;7.116;2024-01-07T15:43:44;1.20;96.30
5334;DHT22;2689;50.954;7.116;2024-01-07T15:46:12;1.20;96.30
5334;DHT22;2689;50.954;7.116;2024-01-07T15:48:39;1.20;96.50
5334;DHT22;2689;50.954;7.116;2024-01-07T15:51:05;1.10;96.40
5334;DHT22;2689;50.954;7.116;2024-01-07T15:53:32;1.10;96.60
5334;DHT22;2689;50.954;7.116;2024-01-07T15:56:00;1.10;96.70
5334;DHT22;2689;50.954;7.116;2024-01-07T15:58:28;1.20;96.80
5334;DHT22;2689;50.954;7.116;2024-01-07T16:00:59;1.20;96.30
5334;DHT22;2689;50.954;7.116;2024-01-07T16:03:29;1.10;95.60
5334;DHT22;2689;50.954;7.116;2024-01-07T16:05:56;1.10;95.70
5334;DHT22;2689;50.954;7.116;2024-01-07T16:08:23;1.10;96.00
5334;DHT22;2689;50.954;7.116;2024-01-07T16:10:51;1.20;95.80
5334;DHT22;2689;50.954;7.116;2024-01-07T16:13:19;1.10;95.40
5334;DHT22;2689;50.954;7.116;2024-01-07T16:15:46;1.00;95.10
5334;DHT22;2689;50.954;7.116;2024-01-07T16:18:13;1.10;95.40